Time;durP1;ratioP1;P1;durP2;ratioP2;P2;SDS_P1;SDS_P2;PMS_P1;PMS_P2;Temp;Humidity;BMP_temperature;BMP_pressure;BME280_temperature;BME280_humidity;BME280_pressure;Samples;Min_cycle;Max_cycle;Signal;HPM_P1;HPM_P2
2021/10/26 00:05:14;;;;;;;114.00;55.60;;;;;;;0.32;79.03;99668.83;4035001;87;21092;-82
2021/10/26 00:11:15;;;;;;;98.35;49.83;;;;;;;0.10;78.82;99671.29;4036602;87;21056;-83
2021/10/26 00:17:17;;;;;;;107.20;54.73;;;;;;;0.12;80.29;99673.16;3923099;86;9999897;-82
2021/10/26 00:23:18;;;;;;;122.02;58.28;;;;;;;0.18;79.50;99665.26;4032977;87;21150;-82
2021/10/26 00:29:19;;;;;;;110.37;56.08;;;;;;;0.18;79.50;99665.26;4034020;87;21070;-82
2021/10/26 00:35:21;;;;;;;110.70;53.58;;;;;;;-0.03;80.08;99653.42;4033566;87;21583;-82
2021/10/26 00:41:24;;;;;;;107.40;54.90;;;;;;;-0.04;79.64;99662.60;4033411;87;21070;-82
2021/10/26 00:47:26;;;;;;;112.07;48.23;;;;;;;-0.24;79.63;99665.56;4033352;87;21107;-83
2021/10/26 00:53:27;;;;;;;91.60;44.00;;;;;;;0.11;79.75;99649.46;4035248;87;21094;-82
2021/10/26 00:59:29;;;;;;;94.20;47.27;;;;;;;0.11;79.75;99649.46;4047204;87;21130;-81
2021/10/26 01:05:32;;;;;;;99.22;48.80;;;;;;;-0.26;80.64;99654.28;4044707;87;21004;-84
2021/10/26 01:11:35;;;;;;;91.32;45.58;;;;;;;-0.46;80.80;99651.84;4046368;86;21086;-83
2021/10/26 01:17:37;;;;;;;98.62;48.63;;;;;;;-0.24;81.26;99650.77;4042082;87;21051;-82
2021/10/26 01:23:38;;;;;;;103.97;48.92;;;;;;;-0.24;80.98;99655.33;4045363;87;21063;-83
2021/10/26 01:29:40;;;;;;;87.87;41.90;;;;;;;-0.35;80.29;99663.27;4043500;87;21130;-84
2021/10/26 01:35:44;;;;;;;92.40;46.05;;;;;;;-0.31;81.74;99666.44;4043163;87;21073;-83
2021/10/26 01:41:45;;;;;;;100.73;47.03;;;;;;;-0.09;81.93;99659.97;4042246;87;21100;-83
2021/10/26 01:47:47;;;;;;;98.17;49.80;;;;;;;-0.26;80.71;99660.19;4042315;87;21075;-84
2021/10/26 01:53:48;;;;;;;100.23;46.47;;;;;;;-0.57;81.49;99655.73;4042040;87;21079;-83
2021/10/26 01:59:49;;;;;;;94.83;46.65;;;;;;;-0.59;81.00;99651.17;4034796;87;21094;-84
2021/10/26 02:05:51;;;;;;;95.40;44.13;;;;;;;-0.40;82.68;99662.79;4013145;87;21098;-83
2021/10/26 02:11:53;;;;;;;99.67;44.77;;;;;;;-0.22;82.52;99663.92;4034598;87;21698;-83
2021/10/26 02:17:54;;;;;;;92.67;45.73;;;;;;;-0.44;81.46;99665.78;4034603;87;21102;-83
2021/10/26 02:23:56;;;;;;;98.22;46.30;;;;;;;-0.51;82.09;99657.80;4013464;87;21031;-83
2021/10/26 02:29:57;;;;;;;96.55;44.60;;;;;;;-0.28;81.72;99671.78;4033914;87;21123;-83
2021/10/26 02:35:58;;;;;;;99.00;46.73;;;;;;;-0.36;82.13;99667.84;4036077;87;21063;-84
2021/10/26 02:42:00;;;;;;;101.87;46.42;;;;;;;-0.47;81.31;99660.97;4033503;87;21104;-82
2021/10/26 02:48:04;;;;;;;97.87;46.70;;;;;;;-0.53;81.38;99668.03;4033125;87;21401;-81
2021/10/26 02:54:06;;;;;;;95.05;44.42;;;;;;;-0.62;81.97;99675.95;4036389;85;21055;-82
2021/10/26 03:00:14;;;;;;;101.92;48.73;;;;;;;-0.72;81.48;99673.36;4035656;87;21000;-82
2021/10/26 03:06:14;;;;;;;93.37;45.92;;;;;;;-0.90;81.49;99679.46;4015632;87;21051;-82
2021/10/26 03:12:15;;;;;;;102.87;47.17;;;;;;;-0.92;82.09;99679.47;4036919;87;21602;-82
2021/10/26 03:18:17;;;;;;;104.50;48.70;;;;;;;-1.15;82.51;99682.38;4036709;87;21449;-82
2021/10/26 03:24:18;;;;;;;96.40;44.27;;;;;;;-0.99;82.78;99686.55;4036811;87;21066;-82
2021/10/26 03:30:21;;;;;;;102.63;46.77;;;;;;;-1.11;82.23;99686.09;4036120;87;21074;-82
2021/10/26 03:36:24;;;;;;;93.17;46.67;;;;;;;-1.22;82.24;99707.41;4034641;87;21491;-82
2021/10/26 03:42:26;;;;;;;103.70;49.77;;;;;;;-1.31;82.03;99700.23;4035430;87;21051;-82
2021/10/26 03:48:27;;;;;;;101.57;47.83;;;;;;;-1.27;82.17;99698.07;4034864;87;21097;-82
2021/10/26 03:54:29;;;;;;;105.27;48.90;;;;;;;-1.23;82.86;99696.41;4034936;86;21098;-82
2021/10/26 04:00:31;;;;;;;107.33;49.57;;;;;;;-1.11;82.07;99694.16;4017534;87;21067;-82
2021/10/26 04:06:37;;;;;;;104.03;49.17;;;;;;;-1.29;82.72;99693.52;4039951;87;21603;-82
2021/10/26 04:12:38;;;;;;;101.40;48.67;;;;;;;-1.26;82.55;99694.83;4042007;87;21033;-81
2021/10/26 04:18:40;;;;;;;101.43;49.23;;;;;;;-1.38;82.29;99689.83;4019506;87;21103;-82
2021/10/26 04:24:42;;;;;;;110.23;47.43;;;;;;;-1.43;82.72;99687.17;4042737;87;21078;-82
2021/10/26 04:30:46;;;;;;;90.73;44.50;;;;;;;-1.22;83.70;99682.45;4041872;87;22218;-82
2021/10/26 04:36:49;;;;;;;96.67;45.87;;;;;;;-1.20;82.90;99686.98;4040883;87;21575;-81
2021/10/26 04:42:52;;;;;;;95.70;44.27;;;;;;;-1.11;83.14;99682.06;4041596;87;21642;-81
2021/10/26 04:48:55;;;;;;;104.87;48.67;;;;;;;-1.33;82.84;99692.45;4041314;87;21090;-82
2021/10/26 04:54:56;;;;;;;103.80;48.07;;;;;;;-1.48;82.13;99702.50;4042412;86;21898;-82
2021/10/26 05:00:57;;;;;;;102.53;46.60;;;;;;;-1.57;82.64;99696.13;4042676;87;21070;-81
2021/10/26 05:07:00;;;;;;;95.50;45.30;;;;;;;-1.71;82.25;99689.25;4017697;87;21531;-82
2021/10/26 05:13:01;;;;;;;106.00;46.20;;;;;;;-1.65;82.70;99684.11;4042111;87;21090;-81
2021/10/26 05:19:17;;;;;;;102.80;44.37;;;;;;;-1.67;83.33;99693.78;4004148;87;21086;-81
2021/10/26 05:25:37;;;;;;;100.37;46.60;;;;;;;-1.32;83.50;99691.39;4041994;87;21085;-82
2021/10/26 05:31:41;;;;;;;128.33;65.27;;;;;;;-1.38;82.87;99702.45;4038317;87;21035;-82
2021/10/26 05:37:42;;;;;;;113.37;52.23;;;;;;;-1.42;82.96;99704.06;4041006;87;21129;-82
2021/10/26 05:43:45;;;;;;;116.03;53.60;;;;;;;-1.40;82.83;99700.57;4042356;87;21647;-81
2021/10/26 05:49:46;;;;;;;107.17;54.00;;;;;;;-1.28;82.82;99708.53;4042206;87;21047;-82
2021/10/26 05:55:48;;;;;;;99.47;48.67;;;;;;;-1.18;83.29;99713.84;4043306;87;21015;-82
2021/10/26 06:01:49;;;;;;;102.27;46.03;;;;;;;-0.99;83.36;99711.27;4043817;87;21050;-82
2021/10/26 06:07:51;;;;;;;96.53;46.20;;;;;;;-0.92;83.31;99715.75;4044432;87;21213;-82
2021/10/26 06:14:07;;;;;;;95.63;44.13;;;;;;;-0.78;83.43;99730.95;4043881;87;21058;-82
2021/10/26 06:20:10;;;;;;;96.17;44.57;;;;;;;-0.75;83.39;99736.33;4044326;87;21106;-83
2021/10/26 06:26:12;;;;;;;79.37;41.27;;;;;;;-0.78;83.32;99750.30;4045284;87;21007;-83
2021/10/26 06:32:15;;;;;;;84.43;43.20;;;;;;;-0.64;83.82;99750.71;4045661;87;21102;-82
2021/10/26 06:38:16;;;;;;;100.77;47.07;;;;;;;-0.47;83.50;99747.05;4047362;87;20990;-82
2021/10/26 06:44:18;;;;;;;95.97;44.50;;;;;;;-0.47;83.66;99756.45;4046010;87;21074;-83
2021/10/26 06:50:27;;;;;;;89.07;43.17;;;;;;;-0.41;83.72;99762.04;4006337;87;21054;-83
2021/10/26 06:56:43;;;;;;;116.73;50.40;;;;;;;-0.23;83.70;99766.70;3984955;87;21626;-83
2021/10/26 07:02:57;;;;;;;109.48;50.17;;;;;;;-0.14;83.96;99772.25;3997019;87;21082;-82
2021/10/26 07:09:05;;;;;;;116.88;51.65;;;;;;;0.22;84.15;99773.44;4004458;87;21142;-83
2021/10/26 07:15:11;;;;;;;101.97;50.12;;;;;;;0.58;84.44;99757.06;3934973;89;21240;-83
2021/10/26 07:21:14;;;;;;;104.27;53.35;;;;;;;1.20;84.87;99772.83;3974563;88;21041;-83
2021/10/26 07:27:34;;;;;;;90.60;46.95;;;;;;;1.75;84.02;99775.11;4001482;87;21086;-83
2021/10/26 07:33:36;;;;;;;106.58;50.45;;;;;;;2.21;83.55;99762.30;4034591;87;21053;-82
2021/10/26 07:39:46;;;;;;;87.50;44.98;;;;;;;2.66;83.46;99773.48;4034632;87;21028;-83
2021/10/26 07:45:48;;;;;;;83.72;40.17;;;;;;;2.87;83.25;99763.02;4034410;87;21114;-85
2021/10/26 07:51:51;;;;;;;77.45;40.52;;;;;;;3.06;83.21;99749.58;4035927;87;21039;-82
2021/10/26 07:57:54;;;;;;;83.45;40.25;;;;;;;3.50;83.39;99746.03;4035569;87;21095;-82
2021/10/26 08:03:57;;;;;;;72.42;38.48;;;;;;;4.17;83.21;99741.20;4040170;87;21033;-83
2021/10/26 08:09:59;;;;;;;83.47;38.35;;;;;;;4.77;82.63;99739.41;4036013;87;21057;-82
2021/10/26 08:16:00;;;;;;;67.30;34.58;;;;;;;5.04;82.24;99732.31;4034232;87;21027;-83
2021/10/26 08:22:05;;;;;;;62.90;35.13;;;;;;;5.40;82.46;99738.16;4035269;87;21089;-82
2021/10/26 08:28:11;;;;;;;52.45;28.83;;;;;;;5.97;81.63;99744.88;4033380;87;21043;-81
2021/10/26 08:34:14;;;;;;;54.90;28.55;;;;;;;6.97;81.91;99742.95;4033692;87;21110;-81
2021/10/26 08:40:13;;;;;;;47.45;27.15;;;;;;;7.82;80.15;99731.20;4035247;87;21075;-82
2021/10/26 08:46:16;;;;;;;46.40;25.35;;;;;;;8.13;78.72;99732.01;4034493;87;21509;-84
2021/10/26 08:52:20;;;;;;;44.75;24.27;;;;;;;8.48;78.14;99733.17;4033789;87;22280;-82
2021/10/26 08:58:32;;;;;;;45.67;24.90;;;;;;;9.03;78.19;99738.73;4074887;84;34464;-83
2021/10/26 09:04:36;;;;;;;41.18;23.40;;;;;;;9.43;78.15;99729.91;4095731;85;21109;-82
2021/10/26 09:10:40;;;;;;;43.40;24.37;;;;;;;9.74;76.82;99723.68;4056276;86;21504;-82
2021/10/26 09:17:00;;;;;;;43.28;23.40;;;;;;;10.53;76.51;99723.32;4097946;83;29641;-82
2021/10/26 09:23:26;;;;;;;36.08;20.88;;;;;;;11.24;75.51;99731.11;4114957;85;21542;-83
2021/10/26 09:29:47;;;;;;;30.37;18.25;;;;;;;11.63;74.36;99726.39;4173799;84;21110;-83
2021/10/26 09:35:48;;;;;;;26.57;15.58;;;;;;;12.06;73.21;99719.10;4169335;84;21538;-83
2021/10/26 09:42:01;;;;;;;28.52;15.60;;;;;;;12.52;72.17;99714.56;4169021;84;21101;-82
2021/10/26 09:48:20;;;;;;;35.05;18.82;;;;;;;12.97;70.91;99714.97;4163288;84;20985;-83
2021/10/26 09:54:19;;;;;;;34.58;17.30;;;;;;;13.21;69.19;99710.98;4166212;84;21008;-82
2021/10/26 10:00:27;;;;;;;31.65;17.52;;;;;;;12.82;68.56;99705.55;4163712;83;22148;-83
2021/10/26 10:06:46;;;;;;;;;;;;;;;13.32;67.79;99706.40;4265249;81;21026;-83
2021/10/26 10:12:53;;;;;;;28.90;14.87;;;;;;;13.91;64.68;99697.38;4242145;82;20377;-82
2021/10/26 10:18:56;;;;;;;25.23;15.20;;;;;;;14.16;65.00;99690.69;4262941;82;21764;-83
2021/10/26 10:25:03;;;;;;;28.75;14.30;;;;;;;14.07;64.68;99675.89;4268266;82;21566;-83
2021/10/26 10:31:05;;;;;;;;;;;;;;;13.95;64.66;99674.79;4271547;81;21090;-83
2021/10/26 10:37:06;;;;;;;31.27;15.32;;;;;;;13.93;62.70;99667.52;4262727;82;20138;-83
2021/10/26 10:43:08;;;;;;;27.32;15.32;;;;;;;14.02;63.45;99662.47;4262697;82;21003;-83
2021/10/26 10:49:26;;;;;;;27.13;16.48;;;;;;;13.87;62.46;99648.98;4265067;82;21106;-83
2021/10/26 10:55:28;;;;;;;24.10;13.15;;;;;;;13.76;61.09;99653.61;4261467;81;21047;-82
2021/10/26 11:01:34;;;;;;;23.05;12.45;;;;;;;13.59;60.57;99633.00;4252298;82;20992;-83
2021/10/26 11:07:50;;;;;;;20.80;11.18;;;;;;;13.92;60.54;99627.39;4250355;82;21011;-83
2021/10/26 11:14:13;;;;;;;15.25;8.25;;;;;;;14.27;59.26;99624.12;4248130;82;21007;-84
2021/10/26 11:20:32;;;;;;;21.75;10.00;;;;;;;14.26;58.33;99619.00;4249894;82;21008;-83
2021/10/26 11:26:37;;;;;;;22.80;9.63;;;;;;;14.10;57.06;99611.00;4246850;82;21535;-83
2021/10/26 11:32:39;;;;;;;20.75;9.48;;;;;;;13.95;56.74;99602.45;4241004;82;21071;-83
2021/10/26 11:38:46;;;;;;;12.73;7.87;;;;;;;13.85;56.51;99599.83;4244208;82;20975;-83
2021/10/26 11:44:49;;;;;;;13.70;7.97;;;;;;;13.87;56.34;99598.87;4246898;82;21036;-83
2021/10/26 11:51:00;;;;;;;15.10;8.73;;;;;;;13.91;55.73;99591.98;4247779;82;21035;-82
2021/10/26 11:57:08;;;;;;;15.98;9.10;;;;;;;13.76;55.16;99589.73;4233154;82;21329;-82
2021/10/26 12:03:12;;;;;;;13.68;7.10;;;;;;;13.60;54.77;99581.53;4218453;82;21088;-82
2021/10/26 12:09:14;;;;;;;10.30;5.37;;;;;;;13.54;54.51;99576.18;4213658;82;21071;-82
2021/10/26 12:15:16;;;;;;;12.93;5.85;;;;;;;13.51;53.73;99574.20;4092188;85;21084;-83
2021/10/26 12:21:18;;;;;;;19.82;6.45;;;;;;;13.46;53.81;99567.09;4210604;84;20992;-83
2021/10/26 12:27:26;;;;;;;11.57;6.08;;;;;;;13.39;53.52;99564.27;4198950;82;21028;-83
2021/10/26 12:33:28;;;;;;;12.80;5.62;;;;;;;13.18;52.97;99559.95;4202269;82;21083;-82
2021/10/26 12:39:34;;;;;;;11.05;5.92;;;;;;;13.12;53.21;99561.47;4207372;82;21105;-81
2021/10/26 12:45:40;;;;;;;13.43;6.00;;;;;;;13.07;52.54;99559.64;4207786;82;20999;-82
2021/10/26 12:51:43;;;;;;;13.53;7.40;;;;;;;13.04;50.99;99557.07;4205996;83;21031;-81
2021/10/26 12:57:45;;;;;;;13.45;7.53;;;;;;;12.98;49.55;99549.51;4226825;82;21173;-82
2021/10/26 13:04:05;;;;;;;13.45;8.05;;;;;;;13.00;51.15;99548.56;4258211;81;21070;-82
2021/10/26 13:10:12;;;;;;;17.00;7.50;;;;;;;13.10;51.71;99548.69;4254070;82;21067;-82
2021/10/26 13:16:43;;;;;;;15.15;7.22;;;;;;;13.14;51.84;99560.49;4262533;82;21114;-82
2021/10/26 13:22:59;;;;;;;13.83;7.45;;;;;;;13.17;51.90;99553.47;4262130;82;21067;-82
2021/10/26 13:29:02;;;;;;;22.58;7.65;;;;;;;13.06;52.15;99550.59;4265924;82;21007;-82
2021/10/26 13:35:04;;;;;;;19.27;9.13;;;;;;;13.05;52.01;99549.59;4259097;81;21114;-83
2021/10/26 13:41:08;;;;;;;19.17;8.40;;;;;;;12.94;51.95;99554.16;4264863;82;21039;-83
2021/10/26 13:47:11;;;;;;;17.80;8.50;;;;;;;12.92;52.06;99556.52;4263869;82;21067;-83
2021/10/26 13:53:13;;;;;;;16.15;8.08;;;;;;;12.82;52.20;99559.36;4265650;81;21011;-83
2021/10/26 13:59:16;;;;;;;15.30;8.50;;;;;;;12.65;52.02;99553.85;4239526;82;21515;-81
2021/10/26 14:05:17;;;;;;;20.00;9.50;;;;;;;12.57;52.58;99563.77;4208077;84;21064;-83
2021/10/26 14:11:19;;;;;;;17.23;9.58;;;;;;;12.46;52.36;99563.66;4138128;85;21059;-82
2021/10/26 14:17:21;;;;;;;22.17;9.55;;;;;;;12.50;52.63;99571.91;4144178;85;21538;-83
2021/10/26 14:23:26;;;;;;;20.80;10.13;;;;;;;12.49;52.78;99570.34;4154597;84;21626;-84
2021/10/26 14:29:26;;;;;;;17.65;9.18;;;;;;;12.36;52.87;99572.53;4112216;86;21103;-81
2021/10/26 14:35:31;;;;;;;22.22;10.15;;;;;;;12.27;53.27;99567.11;4081234;85;21007;-82
2021/10/26 14:54:09;;;;;;;35.80;20.68;;;;;;;11.89;53.77;99566.77;4214717;84;21082;-81
2021/10/26 15:00:08;;;;;;;30.62;17.00;;;;;;;11.69;53.89;99560.38;4214936;82;21043;-82
2021/10/26 15:06:18;;;;;;;26.95;14.63;;;;;;;11.50;54.37;99565.91;4262345;82;21094;-82
2021/10/26 15:12:24;;;;;;;35.43;15.13;;;;;;;11.22;54.86;99569.55;4260696;81;21567;-81
2021/10/26 15:18:24;;;;;;;31.15;13.32;;;;;;;10.97;55.19;99571.84;4264867;82;21043;-82
2021/10/26 15:24:57;;;;;;;39.38;17.98;;;;;;;10.68;55.93;99587.53;4261544;82;21020;-82
2021/10/26 15:37:01;;;;;;;31.68;17.92;;;;;;;10.00;57.21;99601.45;4267229;82;21047;-82
2021/10/26 15:43:03;;;;;;;39.20;19.60;;;;;;;9.60;57.68;99604.41;4268239;82;20999;-82
2021/10/26 15:49:05;;;;;;;31.82;17.35;;;;;;;9.31;58.20;99606.22;4265325;82;21900;-83
2021/10/26 15:55:07;;;;;;;34.40;20.10;;;;;;;8.98;58.90;99618.02;4261440;81;20987;-83
2021/10/26 16:01:09;;;;;;;47.95;26.15;;;;;;;8.58;59.20;99622.75;4232165;82;21537;-84
2021/10/26 16:07:11;;;;;;;53.15;32.60;;;;;;;8.19;60.71;99634.41;4213002;84;21012;-83
2021/10/26 16:13:19;;;;;;;58.65;30.40;;;;;;;8.24;61.06;99643.76;4208398;82;21031;-82
2021/10/26 16:19:16;;;;;;;83.85;47.00;;;;;;;8.06;61.49;99638.28;4182296;84;21083;-82
2021/10/26 16:25:18;;;;;;;74.40;40.50;;;;;;;7.87;62.09;99635.58;4205124;83;21608;-82
2021/10/26 16:31:19;;;;;;;56.40;30.57;;;;;;;7.72;62.42;99649.87;4204333;84;21068;-82
2021/10/26 16:37:26;;;;;;;74.10;38.05;;;;;;;7.45;63.22;99655.19;4220923;82;21047;-82
2021/10/26 16:43:41;;;;;;;104.05;53.87;;;;;;;7.33;63.70;99656.54;4218705;82;21493;-82
2021/10/26 16:49:46;;;;;;;57.62;31.97;;;;;;;7.32;64.31;99658.45;4079200;82;9999866;-82
2021/10/26 16:55:50;;;;;;;55.12;30.82;;;;;;;7.29;65.24;99667.30;4212276;82;21084;-83
2021/10/26 17:02:09;;;;;;;57.67;29.55;;;;;;;6.95;64.96;99679.09;4264539;81;22385;-82
2021/10/26 17:08:01;;;;;;;63.15;32.00;;;;;;;6.80;65.78;99672.34;4285534;81;21014;-83
2021/10/26 17:14:04;;;;;;;68.95;35.95;;;;;;;6.81;66.34;99678.59;4282741;81;21003;-82
2021/10/26 17:20:07;;;;;;;71.80;41.53;;;;;;;6.73;66.37;99697.14;4288445;81;21046;-82
2021/10/26 17:26:08;;;;;;;78.00;41.23;;;;;;;6.62;66.77;99706.27;4282997;81;21038;-82
2021/10/26 17:32:12;;;;;;;81.85;44.60;;;;;;;6.53;67.22;99708.23;4279521;81;21010;-82
2021/10/26 17:38:14;;;;;;;82.00;42.13;;;;;;;6.46;67.56;99715.33;4279013;81;21061;-82
2021/10/26 17:44:17;;;;;;;83.17;42.98;;;;;;;6.35;68.18;99721.17;4283473;81;22196;-82
2021/10/26 17:50:21;;;;;;;451.13;198.95;;;;;;;6.28;68.49;99712.72;4281028;81;21069;-82
2021/10/26 17:56:22;;;;;;;214.02;98.50;;;;;;;6.21;68.79;99713.02;4280245;81;20990;-83
2021/10/26 18:02:25;;;;;;;150.07;73.57;;;;;;;6.26;69.42;99716.33;4263807;81;21386;-82
2021/10/26 18:08:26;;;;;;;154.78;73.20;;;;;;;6.36;70.07;99720.03;4260789;82;20995;-82
2021/10/26 18:14:27;;;;;;;161.13;73.70;;;;;;;6.42;70.26;99727.45;4141491;82;9999912;-82
2021/10/26 18:20:29;;;;;;;142.18;70.85;;;;;;;6.44;70.69;99728.48;4258480;82;21135;-82
2021/10/26 18:26:32;;;;;;;138.95;66.75;;;;;;;6.50;71.01;99742.13;4257118;82;21051;-81
2021/10/26 18:32:39;;;;;;;147.32;66.67;;;;;;;6.56;71.37;99742.97;4252218;82;21007;-81
2021/10/26 18:38:42;;;;;;;126.35;62.27;;;;;;;6.53;71.56;99742.81;4250178;82;20983;-82
2021/10/26 18:44:53;;;;;;;112.15;56.33;;;;;;;6.44;71.52;99739.36;4255795;82;21007;-82
2021/10/26 18:50:54;;;;;;;109.70;54.42;;;;;;;6.42;71.65;99743.77;4249515;82;21554;-83
2021/10/26 18:56:56;;;;;;;116.28;55.70;;;;;;;6.21;72.03;99740.20;4255996;82;20996;-83
2021/10/26 19:02:58;;;;;;;112.35;53.75;;;;;;;6.21;72.47;99750.52;4250851;82;21597;-81
2021/10/26 19:09:00;;;;;;;108.72;53.55;;;;;;;6.18;72.44;99747.11;4251397;82;21019;-82
2021/10/26 19:15:04;;;;;;;109.30;55.08;;;;;;;6.06;72.90;99748.34;4254555;82;21006;-82
2021/10/26 19:21:07;;;;;;;122.07;58.35;;;;;;;6.00;73.10;99754.28;4252020;82;21267;-82
2021/10/26 19:27:08;;;;;;;105.50;54.30;;;;;;;5.69;73.93;99760.52;4246555;82;21578;-83
2021/10/26 19:33:11;;;;;;;110.40;54.80;;;;;;;5.65;74.02;99761.75;4256627;82;20976;-82
2021/10/26 19:39:13;;;;;;;115.20;55.75;;;;;;;5.60;73.87;99777.41;4255157;81;20988;-82
2021/10/26 19:45:14;;;;;;;125.38;60.80;;;;;;;5.52;73.86;99776.31;4125859;80;10000513;-82
2021/10/26 19:51:15;;;;;;;124.40;60.90;;;;;;;5.33;75.25;99778.57;4243962;82;21051;-82
2021/10/26 19:57:17;;;;;;;121.80;60.60;;;;;;;5.25;75.23;99779.37;4245598;82;21441;-81
2021/10/26 20:03:25;;;;;;;127.25;60.10;;;;;;;5.34;75.57;99782.09;4218367;82;21033;-81
2021/10/26 20:09:25;;;;;;;102.10;51.75;;;;;;;5.41;75.77;99802.20;4205561;84;21168;-81
2021/10/26 20:15:27;;;;;;;102.80;52.33;;;;;;;5.40;75.83;99810.13;4213793;82;21096;-81
2021/10/26 20:21:43;;;;;;;107.75;55.90;;;;;;;5.31;75.70;99829.66;4212427;82;21000;-81
2021/10/26 20:33:54;;;;;;;122.45;63.00;;;;;;;5.22;76.83;99841.09;4205824;84;21057;-82
2021/10/26 20:40:02;;;;;;;135.00;65.08;;;;;;;5.23;76.26;99854.11;4219784;82;21702;-81
2021/10/26 20:46:03;;;;;;;127.02;65.12;;;;;;;5.04;76.63;99854.97;4215477;84;21004;-82
2021/10/26 20:52:05;;;;;;;144.22;72.00;;;;;;;4.95;77.00;99860.95;4219253;83;21087;-81
2021/10/26 20:58:06;;;;;;;129.47;70.30;;;;;;;4.97;77.44;99858.15;4207391;83;21081;-81
2021/10/26 21:04:09;;;;;;;127.35;69.85;;;;;;;5.01;77.69;99852.89;4208212;82;21551;-81
2021/10/26 21:10:11;;;;;;;124.82;63.65;;;;;;;5.04;77.96;99861.20;4221694;82;21079;-82
2021/10/26 21:16:13;;;;;;;108.47;54.00;;;;;;;5.09;78.07;99865.68;4207111;84;21122;-81
2021/10/26 21:22:14;;;;;;;99.85;51.58;;;;;;;5.08;78.84;99856.73;4217850;82;21007;-81
2021/10/26 21:28:16;;;;;;;108.60;54.20;;;;;;;5.04;78.73;99853.06;4205738;82;21042;-82
2021/10/26 21:34:23;;;;;;;94.35;52.00;;;;;;;5.09;78.80;99858.31;4224888;83;21354;-82
2021/10/26 21:40:20;;;;;;;94.37;50.58;;;;;;;5.15;79.00;99854.36;4205593;82;20999;-82
2021/10/26 21:46:21;;;;;;;92.45;49.23;;;;;;;5.20;78.99;99857.47;4092712;86;21492;-81
2021/10/26 21:52:22;;;;;;;124.27;61.48;;;;;;;5.17;78.98;99864.89;4098088;85;21064;-82
2021/10/26 21:58:24;;;;;;;118.25;61.15;;;;;;;4.98;78.68;99867.09;4114333;84;21978;-81
2021/10/26 22:04:25;;;;;;;133.43;66.82;;;;;;;4.70;79.05;99861.12;4099815;84;21576;-82
2021/10/26 22:10:27;;;;;;;124.95;63.28;;;;;;;4.39;79.75;99848.98;4098968;85;21059;-83
2021/10/26 22:16:28;;;;;;;131.82;62.90;;;;;;;4.25;79.54;99867.27;4096364;85;22190;-81
2021/10/26 22:22:29;;;;;;;139.47;69.60;;;;;;;4.28;80.14;99862.58;4093325;85;21020;-81
2021/10/26 22:28:31;;;;;;;130.87;63.90;;;;;;;4.03;82.42;99848.89;4096091;85;21020;-82
2021/10/26 22:34:32;;;;;;;123.35;63.23;;;;;;;4.09;81.25;99855.23;4095016;85;21509;-82
2021/10/26 22:40:37;;;;;;;122.33;62.70;;;;;;;4.24;81.21;99854.03;4094699;85;20993;-81
2021/10/26 22:46:37;;;;;;;112.75;58.25;;;;;;;4.30;81.15;99859.55;4097693;85;21572;-80
2021/10/26 22:52:38;;;;;;;122.28;63.75;;;;;;;4.34;81.36;99854.55;4096304;85;22315;-81
2021/10/26 22:58:39;;;;;;;126.75;62.05;;;;;;;4.43;81.36;99864.86;4097651;85;21068;-81
2021/10/26 23:04:41;;;;;;;132.93;64.55;;;;;;;4.25;81.33;99865.91;4128290;84;21065;-81
2021/10/26 23:10:42;;;;;;;129.05;65.03;;;;;;;4.23;81.91;99877.61;4131891;84;21653;-81
2021/10/26 23:16:44;;;;;;;131.07;67.20;;;;;;;4.33;81.66;99873.29;4137996;84;21597;-81
2021/10/26 23:22:45;;;;;;;124.80;61.77;;;;;;;4.36;82.19;99874.02;4136425;84;21021;-81
2021/10/26 23:28:46;;;;;;;107.87;55.30;;;;;;;4.49;82.25;99860.11;4135636;84;21076;-82
2021/10/26 23:34:47;;;;;;;121.57;63.65;;;;;;;4.60;82.33;99861.42;4135893;84;21111;-82
2021/10/26 23:40:48;;;;;;;114.03;58.60;;;;;;;4.67;82.12;99861.75;4256073;82;21016;-81
2021/10/26 23:46:50;;;;;;;119.08;60.58;;;;;;;4.65;81.79;99859.35;4253984;82;21030;-81
2021/10/26 23:52:51;;;;;;;114.30;55.90;;;;;;;4.52;81.96;99853.52;4260591;82;21016;-82
2021/10/26 23:58:52;;;;;;;108.52;55.15;;;;;;;4.17;82.22;99872.64;4257448;82;21452;-82
